sensor_id;sensor_type;location;lat;lon;timestamp;temperature;humidity
65408;DHT22;52017;51.230;-2.322;2023-01-10T00:03:14;5.50;93.20
65408;DHT22;52017;51.230;-2.322;2023-01-10T00:06:56;5.50;93.20
65408;DHT22;52017;51.230;-2.322;2023-01-10T00:10:50;5.50;93.10
65408;DHT22;52017;51.230;-2.322;2023-01-10T00:15:06;5.50;93.00
65408;DHT22;52017;51.230;-2.322;2023-01-10T00:19:17;5.50;92.90
65408;DHT22;52017;51.230;-2.322;2023-01-10T00:22:59;5.50;92.80
65408;DHT22;52017;51.230;-2.322;2023-01-10T00:26:41;5.50;92.90
65408;DHT22;52017;51.230;-2.322;2023-01-10T00:30:25;5.50;92.90
65408;DHT22;52017;51.230;-2.322;2023-01-10T00:34:12;5.50;92.90
65408;DHT22;52017;51.230;-2.322;2023-01-10T00:37:54;5.50;93.10
65408;DHT22;52017;51.230;-2.322;2023-01-10T00:41:42;5.50;93.10
65408;DHT22;52017;51.230;-2.322;2023-01-10T00:45:45;5.50;93.30
65408;DHT22;52017;51.230;-2.322;2023-01-10T00:49:27;5.50;93.30
65408;DHT22;52017;51.230;-2.322;2023-01-10T00:53:11;5.60;93.20
65408;DHT22;52017;51.230;-2.322;2023-01-10T00:57:10;5.60;93.40
65408;DHT22;52017;51.230;-2.322;2023-01-10T01:00:52;5.60;93.60
65408;DHT22;52017;51.230;-2.322;2023-01-10T01:08:37;5.80;93.50
65408;DHT22;52017;51.230;-2.322;2023-01-10T01:12:28;5.80;93.40
65408;DHT22;52017;51.230;-2.322;2023-01-10T01:16:10;5.80;93.10
65408;DHT22;52017;51.230;-2.322;2023-01-10T01:19:52;5.80;93.40
65408;DHT22;52017;51.230;-2.322;2023-01-10T01:23:39;5.90;93.40
65408;DHT22;52017;51.230;-2.322;2023-01-10T01:27:21;5.90;93.50
65408;DHT22;52017;51.230;-2.322;2023-01-10T01:31:10;5.90;93.50
65408;DHT22;52017;51.230;-2.322;2023-01-10T01:34:59;6.00;93.50
65408;DHT22;52017;51.230;-2.322;2023-01-10T01:38:42;6.00;93.70
65408;DHT22;52017;51.230;-2.322;2023-01-10T01:42:30;6.10;94.10
65408;DHT22;52017;51.230;-2.322;2023-01-10T01:46:18;6.20;94.20
65408;DHT22;52017;51.230;-2.322;2023-01-10T01:50:25;6.20;94.20
65408;DHT22;52017;51.230;-2.322;2023-01-10T01:54:12;6.30;92.80
65408;DHT22;52017;51.230;-2.322;2023-01-10T01:58:05;6.40;94.00
65408;DHT22;52017;51.230;-2.322;2023-01-10T02:01:52;6.30;94.10
65408;DHT22;52017;51.230;-2.322;2023-01-10T02:05:36;6.30;94.00
65408;DHT22;52017;51.230;-2.322;2023-01-10T02:09:36;6.40;93.90
65408;DHT22;52017;51.230;-2.322;2023-01-10T02:13:23;6.40;93.40
65408;DHT22;52017;51.230;-2.322;2023-01-10T02:17:08;6.40;94.10
65408;DHT22;52017;51.230;-2.322;2023-01-10T02:33:19;6.50;93.30
65408;DHT22;52017;51.230;-2.322;2023-01-10T02:37:49;6.60;93.60
65408;DHT22;52017;51.230;-2.322;2023-01-10T02:42:10;6.60;91.90
65408;DHT22;52017;51.230;-2.322;2023-01-10T02:46:12;6.60;92.50
65408;DHT22;52017;51.230;-2.322;2023-01-10T02:49:55;6.70;93.80
65408;DHT22;52017;51.230;-2.322;2023-01-10T02:53:42;6.70;93.70
65408;DHT22;52017;51.230;-2.322;2023-01-10T02:57:46;6.70;93.90
65408;DHT22;52017;51.230;-2.322;2023-01-10T03:01:43;6.70;93.60
65408;DHT22;52017;51.230;-2.322;2023-01-10T03:09:40;6.80;93.70
65408;DHT22;52017;51.230;-2.322;2023-01-10T03:17:29;6.80;93.80
65408;DHT22;52017;51.230;-2.322;2023-01-10T03:21:12;6.80;93.70
65408;DHT22;52017;51.230;-2.322;2023-01-10T03:24:56;6.80;93.60
65408;DHT22;52017;51.230;-2.322;2023-01-10T03:28:50;6.90;93.70
65408;DHT22;52017;51.230;-2.322;2023-01-10T03:32:33;6.90;93.40
65408;DHT22;52017;51.230;-2.322;2023-01-10T03:44:14;7.00;93.00
65408;DHT22;52017;51.230;-2.322;2023-01-10T03:48:17;7.00;93.50
65408;DHT22;52017;51.230;-2.322;2023-01-10T03:52:01;7.00;93.70
65408;DHT22;52017;51.230;-2.322;2023-01-10T03:55:44;7.10;93.90
65408;DHT22;52017;51.230;-2.322;2023-01-10T03:59:27;7.10;94.00
65408;DHT22;52017;51.230;-2.322;2023-01-10T04:03:10;7.20;94.30
65408;DHT22;52017;51.230;-2.322;2023-01-10T04:06:52;7.20;94.30
65408;DHT22;52017;51.230;-2.322;2023-01-10T04:10:34;7.30;94.00
65408;DHT22;52017;51.230;-2.322;2023-01-10T04:14:17;7.30;94.20
65408;DHT22;52017;51.230;-2.322;2023-01-10T04:17:58;7.40;94.60
65408;DHT22;52017;51.230;-2.322;2023-01-10T04:21:42;7.50;94.50
65408;DHT22;52017;51.230;-2.322;2023-01-10T04:25:24;7.50;94.50
65408;DHT22;52017;51.230;-2.322;2023-01-10T04:29:06;7.50;94.40
65408;DHT22;52017;51.230;-2.322;2023-01-10T04:32:48;7.50;94.20
65408;DHT22;52017;51.230;-2.322;2023-01-10T04:36:29;7.60;94.20
65408;DHT22;52017;51.230;-2.322;2023-01-10T04:40:12;7.60;94.30
65408;DHT22;52017;51.230;-2.322;2023-01-10T04:43:58;7.60;94.20
65408;DHT22;52017;51.230;-2.322;2023-01-10T04:47:40;7.50;94.00
65408;DHT22;52017;51.230;-2.322;2023-01-10T04:51:23;7.50;94.30
65408;DHT22;52017;51.230;-2.322;2023-01-10T04:55:05;7.40;94.60
65408;DHT22;52017;51.230;-2.322;2023-01-10T04:58:48;7.30;94.60
65408;DHT22;52017;51.230;-2.322;2023-01-10T05:02:33;7.30;94.70
65408;DHT22;52017;51.230;-2.322;2023-01-10T05:06:16;7.30;94.80
65408;DHT22;52017;51.230;-2.322;2023-01-10T05:09:58;7.30;95.00
65408;DHT22;52017;51.230;-2.322;2023-01-10T05:13:40;7.30;95.00
65408;DHT22;52017;51.230;-2.322;2023-01-10T05:17:22;7.20;95.10
65408;DHT22;52017;51.230;-2.322;2023-01-10T05:21:10;7.20;95.10
65408;DHT22;52017;51.230;-2.322;2023-01-10T05:24:52;7.20;95.30
65408;DHT22;52017;51.230;-2.322;2023-01-10T05:28:35;7.20;95.30
65408;DHT22;52017;51.230;-2.322;2023-01-10T05:32:17;7.20;95.50
65408;DHT22;52017;51.230;-2.322;2023-01-10T05:36:03;7.20;95.50
65408;DHT22;52017;51.230;-2.322;2023-01-10T05:39:45;7.20;95.80
65408;DHT22;52017;51.230;-2.322;2023-01-10T05:43:27;7.30;95.80
65408;DHT22;52017;51.230;-2.322;2023-01-10T05:47:09;7.30;95.70
65408;DHT22;52017;51.230;-2.322;2023-01-10T05:50:53;7.30;95.90
65408;DHT22;52017;51.230;-2.322;2023-01-10T05:54:36;7.40;96.10
65408;DHT22;52017;51.230;-2.322;2023-01-10T05:58:18;7.40;95.90
65408;DHT22;52017;51.230;-2.322;2023-01-10T06:02:00;7.40;96.10
65408;DHT22;52017;51.230;-2.322;2023-01-10T06:05:42;7.40;96.10
65408;DHT22;52017;51.230;-2.322;2023-01-10T06:09:24;7.40;96.10
65408;DHT22;52017;51.230;-2.322;2023-01-10T06:13:06;7.50;96.10
65408;DHT22;52017;51.230;-2.322;2023-01-10T06:16:48;7.50;96.20
65408;DHT22;52017;51.230;-2.322;2023-01-10T06:20:30;7.50;96.10
65408;DHT22;52017;51.230;-2.322;2023-01-10T06:24:12;7.50;96.20
65408;DHT22;52017;51.230;-2.322;2023-01-10T06:27:54;7.50;96.20
65408;DHT22;52017;51.230;-2.322;2023-01-10T06:31:42;7.60;96.20
65408;DHT22;52017;51.230;-2.322;2023-01-10T06:35:26;7.60;96.20
65408;DHT22;52017;51.230;-2.322;2023-01-10T06:39:10;7.70;96.30
65408;DHT22;52017;51.230;-2.322;2023-01-10T06:43:07;7.70;96.30
65408;DHT22;52017;51.230;-2.322;2023-01-10T06:46:50;7.70;96.30
65408;DHT22;52017;51.230;-2.322;2023-01-10T06:50:35;7.70;96.30
65408;DHT22;52017;51.230;-2.322;2023-01-10T06:54:20;7.80;96.40
65408;DHT22;52017;51.230;-2.322;2023-01-10T06:58:09;7.80;96.30
65408;DHT22;52017;51.230;-2.322;2023-01-10T07:01:53;7.80;96.30
65408;DHT22;52017;51.230;-2.322;2023-01-10T07:05:35;7.80;96.40
65408;DHT22;52017;51.230;-2.322;2023-01-10T07:09:18;7.90;96.30
65408;DHT22;52017;51.230;-2.322;2023-01-10T07:13:04;7.90;96.30
65408;DHT22;52017;51.230;-2.322;2023-01-10T07:16:53;7.90;96.40
65408;DHT22;52017;51.230;-2.322;2023-01-10T07:20:57;7.90;96.30
65408;DHT22;52017;51.230;-2.322;2023-01-10T07:24:47;7.90;96.20
65408;DHT22;52017;51.230;-2.322;2023-01-10T07:28:30;7.90;96.30
65408;DHT22;52017;51.230;-2.322;2023-01-10T07:32:23;8.00;96.40
65408;DHT22;52017;51.230;-2.322;2023-01-10T07:36:13;7.90;96.30
65408;DHT22;52017;51.230;-2.322;2023-01-10T07:44:02;8.00;96.30
65408;DHT22;52017;51.230;-2.322;2023-01-10T07:47:58;8.00;96.30
65408;DHT22;52017;51.230;-2.322;2023-01-10T07:51:50;8.00;96.40
65408;DHT22;52017;51.230;-2.322;2023-01-10T07:55:42;8.00;96.40
65408;DHT22;52017;51.230;-2.322;2023-01-10T07:59:32;8.00;96.40
65408;DHT22;52017;51.230;-2.322;2023-01-10T08:03:17;8.00;96.40
65408;DHT22;52017;51.230;-2.322;2023-01-10T08:07:00;8.10;96.40
65408;DHT22;52017;51.230;-2.322;2023-01-10T08:10:42;8.10;96.40
65408;DHT22;52017;51.230;-2.322;2023-01-10T08:14:27;8.10;96.40
65408;DHT22;52017;51.230;-2.322;2023-01-10T08:18:20;8.10;96.50
65408;DHT22;52017;51.230;-2.322;2023-01-10T08:22:05;8.20;96.50
65408;DHT22;52017;51.230;-2.322;2023-01-10T08:25:47;8.20;96.50
65408;DHT22;52017;51.230;-2.322;2023-01-10T08:29:29;8.20;96.50
65408;DHT22;52017;51.230;-2.322;2023-01-10T08:33:13;8.30;96.50
65408;DHT22;52017;51.230;-2.322;2023-01-10T08:37:13;8.30;96.60
65408;DHT22;52017;51.230;-2.322;2023-01-10T08:40:56;8.40;96.60
65408;DHT22;52017;51.230;-2.322;2023-01-10T08:44:43;8.40;96.60
65408;DHT22;52017;51.230;-2.322;2023-01-10T08:48:26;8.40;96.70
65408;DHT22;52017;51.230;-2.322;2023-01-10T08:52:09;8.50;96.60
65408;DHT22;52017;51.230;-2.322;2023-01-10T08:55:51;8.50;96.70
65408;DHT22;52017;51.230;-2.322;2023-01-10T08:59:40;8.50;96.70
65408;DHT22;52017;51.230;-2.322;2023-01-10T09:03:23;8.70;96.70
65408;DHT22;52017;51.230;-2.322;2023-01-10T09:07:07;8.70;96.70
65408;DHT22;52017;51.230;-2.322;2023-01-10T09:11:07;8.80;96.70
65408;DHT22;52017;51.230;-2.322;2023-01-10T09:14:57;8.80;96.90
65408;DHT22;52017;51.230;-2.322;2023-01-10T09:18:44;8.90;96.80
65408;DHT22;52017;51.230;-2.322;2023-01-10T09:22:37;9.00;96.80
65408;DHT22;52017;51.230;-2.322;2023-01-10T09:26:23;9.00;96.80
65408;DHT22;52017;51.230;-2.322;2023-01-10T09:30:13;9.10;96.80
65408;DHT22;52017;51.230;-2.322;2023-01-10T09:34:11;9.20;96.90
65408;DHT22;52017;51.230;-2.322;2023-01-10T09:38:00;9.40;97.00
65408;DHT22;52017;51.230;-2.322;2023-01-10T09:41:58;9.50;96.90
65408;DHT22;52017;51.230;-2.322;2023-01-10T09:46:02;9.50;96.90
65408;DHT22;52017;51.230;-2.322;2023-01-10T09:49:59;9.70;97.00
65408;DHT22;52017;51.230;-2.322;2023-01-10T09:53:58;9.90;96.90
65408;DHT22;52017;51.230;-2.322;2023-01-10T09:58:03;10.00;96.90
65408;DHT22;52017;51.230;-2.322;2023-01-10T10:01:56;10.10;96.80
65408;DHT22;52017;51.230;-2.322;2023-01-10T10:05:49;10.20;96.80
65408;DHT22;52017;51.230;-2.322;2023-01-10T10:09:38;10.30;96.90
65408;DHT22;52017;51.230;-2.322;2023-01-10T10:30:54;10.90;96.90
65408;DHT22;52017;51.230;-2.322;2023-01-10T10:35:01;11.00;96.80
65408;DHT22;52017;51.230;-2.322;2023-01-10T10:38:46;11.00;96.90
65408;DHT22;52017;51.230;-2.322;2023-01-10T10:42:40;11.20;96.50
65408;DHT22;52017;51.230;-2.322;2023-01-10T10:46:24;11.20;96.40
65408;DHT22;52017;51.230;-2.322;2023-01-10T10:50:34;11.30;96.40
65408;DHT22;52017;51.230;-2.322;2023-01-10T10:54:20;11.30;96.40
65408;DHT22;52017;51.230;-2.322;2023-01-10T10:58:06;11.40;96.30
65408;DHT22;52017;51.230;-2.322;2023-01-10T11:01:51;11.50;96.20
65408;DHT22;52017;51.230;-2.322;2023-01-10T11:05:40;11.50;96.30
65408;DHT22;52017;51.230;-2.322;2023-01-10T11:09:25;11.50;96.20
65408;DHT22;52017;51.230;-2.322;2023-01-10T11:14:08;11.60;96.20
65408;DHT22;52017;51.230;-2.322;2023-01-10T11:18:26;11.70;96.50
65408;DHT22;52017;51.230;-2.322;2023-01-10T11:22:07;11.70;96.30
65408;DHT22;52017;51.230;-2.322;2023-01-10T11:25:51;11.80;96.10
65408;DHT22;52017;51.230;-2.322;2023-01-10T11:29:41;11.80;96.00
65408;DHT22;52017;51.230;-2.322;2023-01-10T11:33:29;11.80;96.10
65408;DHT22;52017;51.230;-2.322;2023-01-10T11:37:19;11.90;96.00
65408;DHT22;52017;51.230;-2.322;2023-01-10T11:41:03;11.90;96.00
65408;DHT22;52017;51.230;-2.322;2023-01-10T11:44:46;12.00;96.10
65408;DHT22;52017;51.230;-2.322;2023-01-10T11:48:43;12.00;96.00
65408;DHT22;52017;51.230;-2.322;2023-01-10T11:52:47;12.00;96.20
65408;DHT22;52017;51.230;-2.322;2023-01-10T11:56:33;12.00;96.00
65408;DHT22;52017;51.230;-2.322;2023-01-10T12:00:18;12.00;96.00
65408;DHT22;52017;51.230;-2.322;2023-01-10T12:04:00;12.10;96.00
65408;DHT22;52017;51.230;-2.322;2023-01-10T12:08:00;12.10;96.00
65408;DHT22;52017;51.230;-2.322;2023-01-10T12:12:04;12.10;96.20
65408;DHT22;52017;51.230;-2.322;2023-01-10T12:15:47;12.10;96.20
65408;DHT22;52017;51.230;-2.322;2023-01-10T12:19:30;12.10;96.10
65408;DHT22;52017;51.230;-2.322;2023-01-10T12:23:16;12.10;96.10
65408;DHT22;52017;51.230;-2.322;2023-01-10T12:27:04;12.20;96.10
65408;DHT22;52017;51.230;-2.322;2023-01-10T12:30:47;12.20;96.10
65408;DHT22;52017;51.230;-2.322;2023-01-10T12:34:37;12.20;96.10
65408;DHT22;52017;51.230;-2.322;2023-01-10T12:38:28;12.20;96.40
65408;DHT22;52017;51.230;-2.322;2023-01-10T12:47:18;12.20;96.10
65408;DHT22;52017;51.230;-2.322;2023-01-10T12:51:11;12.20;96.20
65408;DHT22;52017;51.230;-2.322;2023-01-10T12:54:55;12.20;96.10
65408;DHT22;52017;51.230;-2.322;2023-01-10T12:58:49;12.20;96.20
65408;DHT22;52017;51.230;-2.322;2023-01-10T13:02:39;12.20;96.20
65408;DHT22;52017;51.230;-2.322;2023-01-10T13:06:33;12.20;96.20
65408;DHT22;52017;51.230;-2.322;2023-01-10T13:10:19;12.20;96.20
65408;DHT22;52017;51.230;-2.322;2023-01-10T13:14:04;12.20;96.20
65408;DHT22;52017;51.230;-2.322;2023-01-10T13:17:52;12.20;96.30
65408;DHT22;52017;51.230;-2.322;2023-01-10T13:21:37;12.20;96.30
65408;DHT22;52017;51.230;-2.322;2023-01-10T13:25:29;12.20;96.30
65408;DHT22;52017;51.230;-2.322;2023-01-10T13:29:40;12.20;96.30
65408;DHT22;52017;51.230;-2.322;2023-01-10T13:33:31;12.20;96.50
65408;DHT22;52017;51.230;-2.322;2023-01-10T13:37:22;12.20;96.40
65408;DHT22;52017;51.230;-2.322;2023-01-10T13:41:07;12.20;96.40
65408;DHT22;52017;51.230;-2.322;2023-01-10T13:52:32;12.30;96.30
65408;DHT22;52017;51.230;-2.322;2023-01-10T14:00:21;12.30;96.30
65408;DHT22;52017;51.230;-2.322;2023-01-10T14:04:44;12.40;96.30
65408;DHT22;52017;51.230;-2.322;2023-01-10T14:08:30;12.40;96.30
65408;DHT22;52017;51.230;-2.322;2023-01-10T14:16:00;12.40;96.20
65408;DHT22;52017;51.230;-2.322;2023-01-10T14:23:55;12.50;96.20
65408;DHT22;52017;51.230;-2.322;2023-01-10T14:27:44;12.50;96.10
65408;DHT22;52017;51.230;-2.322;2023-01-10T14:31:27;12.50;96.10
65408;DHT22;52017;51.230;-2.322;2023-01-10T14:35:16;12.50;96.10
65408;DHT22;52017;51.230;-2.322;2023-01-10T14:39:04;12.50;96.00
65408;DHT22;52017;51.230;-2.322;2023-01-10T14:42:47;12.50;96.00
65408;DHT22;52017;51.230;-2.322;2023-01-10T14:46:54;12.50;96.10
65408;DHT22;52017;51.230;-2.322;2023-01-10T14:50:39;12.50;95.90
65408;DHT22;52017;51.230;-2.322;2023-01-10T14:54:21;12.50;95.90
65408;DHT22;52017;51.230;-2.322;2023-01-10T14:58:16;12.40;95.90
65408;DHT22;52017;51.230;-2.322;2023-01-10T15:02:22;12.40;96.00
65408;DHT22;52017;51.230;-2.322;2023-01-10T15:06:06;12.30;96.10
65408;DHT22;52017;51.230;-2.322;2023-01-10T15:09:49;12.30;96.10
65408;DHT22;52017;51.230;-2.322;2023-01-10T15:13:35;12.30;96.10
65408;DHT22;52017;51.230;-2.322;2023-01-10T15:17:20;12.30;96.20
65408;DHT22;52017;51.230;-2.322;2023-01-10T15:21:03;12.30;96.20
65408;DHT22;52017;51.230;-2.322;2023-01-10T15:29:11;12.30;96.30
65408;DHT22;52017;51.230;-2.322;2023-01-10T15:33:06;12.30;96.30
65408;DHT22;52017;51.230;-2.322;2023-01-10T15:37:00;12.30;96.30
65408;DHT22;52017;51.230;-2.322;2023-01-10T15:40:57;12.30;96.30
65408;DHT22;52017;51.230;-2.322;2023-01-10T15:44:48;12.30;96.30
65408;DHT22;52017;51.230;-2.322;2023-01-10T15:48:39;12.30;96.30
65408;DHT22;52017;51.230;-2.322;2023-01-10T15:52:22;12.40;96.30
65408;DHT22;52017;51.230;-2.322;2023-01-10T15:56:10;12.40;96.20
65408;DHT22;52017;51.230;-2.322;2023-01-10T15:59:55;12.40;96.20
65408;DHT22;52017;51.230;-2.322;2023-01-10T16:03:58;12.50;96.20
65408;DHT22;52017;51.230;-2.322;2023-01-10T16:07:44;12.50;96.10
65408;DHT22;52017;51.230;-2.322;2023-01-10T16:11:39;12.50;96.10
65408;DHT22;52017;51.230;-2.322;2023-01-10T16:15:41;12.50;96.00
65408;DHT22;52017;51.230;-2.322;2023-01-10T16:19:23;12.50;96.10
65408;DHT22;52017;51.230;-2.322;2023-01-10T16:23:05;12.50;96.10
65408;DHT22;52017;51.230;-2.322;2023-01-10T16:26:56;12.50;96.10
65408;DHT22;52017;51.230;-2.322;2023-01-10T16:30:38;12.60;96.10
65408;DHT22;52017;51.230;-2.322;2023-01-10T16:34:29;12.60;96.00
65408;DHT22;52017;51.230;-2.322;2023-01-10T16:38:14;12.70;96.00
65408;DHT22;52017;51.230;-2.322;2023-01-10T16:41:58;12.70;96.00
65408;DHT22;52017;51.230;-2.322;2023-01-10T16:45:59;12.70;96.00
65408;DHT22;52017;51.230;-2.322;2023-01-10T16:49:41;12.70;96.00
65408;DHT22;52017;51.230;-2.322;2023-01-10T16:53:23;12.70;96.00
65408;DHT22;52017;51.230;-2.322;2023-01-10T16:57:05;12.70;96.00
65408;DHT22;52017;51.230;-2.322;2023-01-10T17:00:49;12.70;96.00
65408;DHT22;52017;51.230;-2.322;2023-01-10T17:04:33;12.70;96.00
65408;DHT22;52017;51.230;-2.322;2023-01-10T17:08:19;12.80;95.90
65408;DHT22;52017;51.230;-2.322;2023-01-10T17:12:05;12.80;95.80
65408;DHT22;52017;51.230;-2.322;2023-01-10T17:15:48;12.80;95.70
65408;DHT22;52017;51.230;-2.322;2023-01-10T17:19:31;12.90;95.70
65408;DHT22;52017;51.230;-2.322;2023-01-10T17:23:14;12.90;95.70
65408;DHT22;52017;51.230;-2.322;2023-01-10T17:26:56;13.00;95.70
65408;DHT22;52017;51.230;-2.322;2023-01-10T17:30:39;13.00;95.60
65408;DHT22;52017;51.230;-2.322;2023-01-10T17:34:21;13.00;95.60
65408;DHT22;52017;51.230;-2.322;2023-01-10T17:38:03;13.00;95.60
65408;DHT22;52017;51.230;-2.322;2023-01-10T17:41:45;12.90;95.60
65408;DHT22;52017;51.230;-2.322;2023-01-10T17:45:27;12.90;95.40
65408;DHT22;52017;51.230;-2.322;2023-01-10T17:49:09;12.80;95.40
65408;DHT22;52017;51.230;-2.322;2023-01-10T17:52:54;12.70;95.70
65408;DHT22;52017;51.230;-2.322;2023-01-10T17:56:36;12.60;95.80
65408;DHT22;52017;51.230;-2.322;2023-01-10T18:00:19;12.60;95.90
65408;DHT22;52017;51.230;-2.322;2023-01-10T18:04:01;12.50;96.10
65408;DHT22;52017;51.230;-2.322;2023-01-10T18:07:43;12.50;96.10
65408;DHT22;52017;51.230;-2.322;2023-01-10T18:11:26;12.50;96.20
65408;DHT22;52017;51.230;-2.322;2023-01-10T18:15:09;12.50;96.30
65408;DHT22;52017;51.230;-2.322;2023-01-10T18:18:52;12.50;96.30
65408;DHT22;52017;51.230;-2.322;2023-01-10T18:22:34;12.50;96.40
65408;DHT22;52017;51.230;-2.322;2023-01-10T18:26:34;12.60;96.50
65408;DHT22;52017;51.230;-2.322;2023-01-10T18:30:20;12.50;96.40
65408;DHT22;52017;51.230;-2.322;2023-01-10T18:34:03;12.50;96.50
65408;DHT22;52017;51.230;-2.322;2023-01-10T18:37:45;12.50;96.50
65408;DHT22;52017;51.230;-2.322;2023-01-10T18:41:27;12.50;96.50
65408;DHT22;52017;51.230;-2.322;2023-01-10T18:45:09;12.60;96.50
65408;DHT22;52017;51.230;-2.322;2023-01-10T18:48:51;12.50;96.50
65408;DHT22;52017;51.230;-2.322;2023-01-10T18:52:34;12.50;96.50
65408;DHT22;52017;51.230;-2.322;2023-01-10T18:56:16;12.50;96.50
65408;DHT22;52017;51.230;-2.322;2023-01-10T18:59:58;12.50;96.50
65408;DHT22;52017;51.230;-2.322;2023-01-10T19:03:41;12.50;96.50
65408;DHT22;52017;51.230;-2.322;2023-01-10T19:07:23;12.50;96.60
65408;DHT22;52017;51.230;-2.322;2023-01-10T19:11:06;12.50;96.60
65408;DHT22;52017;51.230;-2.322;2023-01-10T19:14:55;12.50;96.60
65408;DHT22;52017;51.230;-2.322;2023-01-10T19:18:38;12.50;96.60
65408;DHT22;52017;51.230;-2.322;2023-01-10T19:22:20;12.50;96.60
65408;DHT22;52017;51.230;-2.322;2023-01-10T19:26:04;12.50;96.60
65408;DHT22;52017;51.230;-2.322;2023-01-10T19:29:46;12.50;96.60
65408;DHT22;52017;51.230;-2.322;2023-01-10T19:33:34;12.50;96.70
65408;DHT22;52017;51.230;-2.322;2023-01-10T19:37:18;12.50;96.70
65408;DHT22;52017;51.230;-2.322;2023-01-10T19:41:00;12.50;96.70
65408;DHT22;52017;51.230;-2.322;2023-01-10T19:44:42;12.50;96.70
65408;DHT22;52017;51.230;-2.322;2023-01-10T19:48:24;12.50;96.70
65408;DHT22;52017;51.230;-2.322;2023-01-10T19:52:07;12.50;96.70
65408;DHT22;52017;51.230;-2.322;2023-01-10T19:55:59;12.50;96.70
65408;DHT22;52017;51.230;-2.322;2023-01-10T19:59:42;12.50;96.70
65408;DHT22;52017;51.230;-2.322;2023-01-10T20:03:26;12.50;96.70
65408;DHT22;52017;51.230;-2.322;2023-01-10T20:07:08;12.50;96.70
65408;DHT22;52017;51.230;-2.322;2023-01-10T20:10:50;12.50;96.70
65408;DHT22;52017;51.230;-2.322;2023-01-10T20:14:32;12.50;96.70
65408;DHT22;52017;51.230;-2.322;2023-01-10T20:18:14;12.50;96.70
65408;DHT22;52017;51.230;-2.322;2023-01-10T20:21:56;12.50;96.70
65408;DHT22;52017;51.230;-2.322;2023-01-10T20:25:38;12.40;96.50
65408;DHT22;52017;51.230;-2.322;2023-01-10T20:29:20;12.20;96.00
65408;DHT22;52017;51.230;-2.322;2023-01-10T20:33:02;12.00;95.80
65408;DHT22;52017;51.230;-2.322;2023-01-10T20:36:44;11.90;95.60
65408;DHT22;52017;51.230;-2.322;2023-01-10T20:40:28;11.70;95.60
65408;DHT22;52017;51.230;-2.322;2023-01-10T20:44:10;11.60;95.60
65408;DHT22;52017;51.230;-2.322;2023-01-10T20:47:52;11.50;95.50
65408;DHT22;52017;51.230;-2.322;2023-01-10T20:51:34;11.40;95.50
65408;DHT22;52017;51.230;-2.322;2023-01-10T20:55:17;11.30;95.60
65408;DHT22;52017;51.230;-2.322;2023-01-10T20:59:01;11.30;95.70
65408;DHT22;52017;51.230;-2.322;2023-01-10T21:02:43;11.20;95.70
65408;DHT22;52017;51.230;-2.322;2023-01-10T21:06:25;11.30;95.90
65408;DHT22;52017;51.230;-2.322;2023-01-10T21:10:08;11.30;95.90
65408;DHT22;52017;51.230;-2.322;2023-01-10T21:13:50;11.40;96.10
65408;DHT22;52017;51.230;-2.322;2023-01-10T21:17:32;11.30;96.00
65408;DHT22;52017;51.230;-2.322;2023-01-10T21:21:17;11.30;95.90
65408;DHT22;52017;51.230;-2.322;2023-01-10T21:24:59;11.20;96.00
65408;DHT22;52017;51.230;-2.322;2023-01-10T21:28:43;11.20;95.90
65408;DHT22;52017;51.230;-2.322;2023-01-10T21:32:29;11.20;95.90
65408;DHT22;52017;51.230;-2.322;2023-01-10T21:36:11;11.20;95.90
65408;DHT22;52017;51.230;-2.322;2023-01-10T21:39:54;11.30;95.90
65408;DHT22;52017;51.230;-2.322;2023-01-10T21:43:37;11.30;95.90
65408;DHT22;52017;51.230;-2.322;2023-01-10T21:47:19;11.20;95.90
65408;DHT22;52017;51.230;-2.322;2023-01-10T21:51:01;11.20;95.80
65408;DHT22;52017;51.230;-2.322;2023-01-10T21:54:43;11.10;95.80
65408;DHT22;52017;51.230;-2.322;2023-01-10T21:58:25;11.20;95.80
65408;DHT22;52017;51.230;-2.322;2023-01-10T22:02:11;11.20;95.80
65408;DHT22;52017;51.230;-2.322;2023-01-10T22:05:54;11.20;95.80
65408;DHT22;52017;51.230;-2.322;2023-01-10T22:09:36;11.10;95.70
65408;DHT22;52017;51.230;-2.322;2023-01-10T22:13:18;11.10;95.70
65408;DHT22;52017;51.230;-2.322;2023-01-10T22:17:01;11.10;95.60
65408;DHT22;52017;51.230;-2.322;2023-01-10T22:20:43;11.00;95.60
65408;DHT22;52017;51.230;-2.322;2023-01-10T22:24:25;11.00;95.60
65408;DHT22;52017;51.230;-2.322;2023-01-10T22:28:07;11.00;95.50
65408;DHT22;52017;51.230;-2.322;2023-01-10T22:31:49;11.00;95.60
65408;DHT22;52017;51.230;-2.322;2023-01-10T22:35:32;11.00;95.60
65408;DHT22;52017;51.230;-2.322;2023-01-10T22:39:15;11.00;95.60
65408;DHT22;52017;51.230;-2.322;2023-01-10T22:42:56;11.00;95.60
65408;DHT22;52017;51.230;-2.322;2023-01-10T22:46:38;11.00;95.60
65408;DHT22;52017;51.230;-2.322;2023-01-10T22:50:20;11.00;95.60
65408;DHT22;52017;51.230;-2.322;2023-01-10T22:54:02;11.00;95.60
65408;DHT22;52017;51.230;-2.322;2023-01-10T22:57:45;11.00;95.60
65408;DHT22;52017;51.230;-2.322;2023-01-10T23:01:28;10.90;95.50
65408;DHT22;52017;51.230;-2.322;2023-01-10T23:05:10;10.90;95.50
65408;DHT22;52017;51.230;-2.322;2023-01-10T23:08:52;10.90;95.40
65408;DHT22;52017;51.230;-2.322;2023-01-10T23:12:34;10.80;95.40
65408;DHT22;52017;51.230;-2.322;2023-01-10T23:16:21;10.80;95.40
65408;DHT22;52017;51.230;-2.322;2023-01-10T23:20:09;10.80;95.50
65408;DHT22;52017;51.230;-2.322;2023-01-10T23:23:51;10.60;95.50
65408;DHT22;52017;51.230;-2.322;2023-01-10T23:27:35;10.70;95.50
65408;DHT22;52017;51.230;-2.322;2023-01-10T23:31:21;10.70;95.50
65408;DHT22;52017;51.230;-2.322;2023-01-10T23:35:04;10.60;95.50
65408;DHT22;52017;51.230;-2.322;2023-01-10T23:38:46;10.50;95.30
65408;DHT22;52017;51.230;-2.322;2023-01-10T23:42:28;10.60;95.70
65408;DHT22;52017;51.230;-2.322;2023-01-10T23:46:10;10.50;95.70
65408;DHT22;52017;51.230;-2.322;2023-01-10T23:49:52;10.60;95.70
65408;DHT22;52017;51.230;-2.322;2023-01-10T23:53:34;10.60;95.70
65408;DHT22;52017;51.230;-2.322;2023-01-10T23:57:16;10.50;95.50
